createdAt,value
2022-08-26T00:02:01.429Z,99412.10
2022-08-26T00:04:29.070Z,99412.58
2022-08-26T00:06:56.717Z,99408.14
2022-08-26T00:09:25.929Z,99411.27
2022-08-26T00:11:54.101Z,99421.27
2022-08-26T00:14:28.302Z,99419.64
2022-08-26T00:16:58.682Z,99423.98
2022-08-26T00:19:25.928Z,99422.79
2022-08-26T00:21:53.733Z,99418.67
2022-08-26T00:24:21.347Z,99419.86
2022-08-26T00:26:49.680Z,99418.45
2022-08-26T00:29:17.830Z,99419.65
2022-08-26T00:31:45.655Z,99417.47
2022-08-26T00:34:13.981Z,99418.88
2022-08-26T00:36:43.540Z,99414.60
2022-08-26T00:39:11.380Z,99412.01
2022-08-26T00:41:40.790Z,99406.95
2022-08-26T00:44:10.619Z,99406.69
2022-08-26T00:46:53.396Z,99409.20
2022-08-26T00:49:40.296Z,99410.14
2022-08-26T00:52:14.419Z,99408.74
2022-08-26T00:54:53.329Z,99409.25
2022-08-26T00:57:22.121Z,99407.42
2022-08-26T00:59:54.490Z,99405.31
2022-08-26T01:02:22.371Z,99408.95
2022-08-26T01:05:00.286Z,99408.52
2022-08-26T01:07:31.236Z,99403.64
2022-08-26T01:10:06.400Z,99401.13
2022-08-26T01:12:40.650Z,99399.52
2022-08-26T01:15:20.049Z,99402.09
2022-08-26T01:17:47.470Z,99399.82
2022-08-26T01:20:36.496Z,99400.62
2022-08-26T01:23:10.280Z,99396.47
2022-08-26T01:25:43.557Z,99397.67
2022-08-26T01:28:22.606Z,99393.27
2022-08-26T01:30:52.801Z,99396.73
2022-08-26T01:33:29.486Z,99394.41
2022-08-26T01:35:56.706Z,99394.77
2022-08-26T01:38:24.432Z,99393.10
2022-08-26T01:40:54.525Z,99393.89
2022-08-26T01:43:27.100Z,99394.64
2022-08-26T01:45:56.533Z,99389.46
2022-08-26T01:48:28.408Z,99394.23
2022-08-26T01:50:56.894Z,99400.39
2022-08-26T01:53:25.148Z,99399.08
2022-08-26T01:55:56.808Z,99401.63
2022-08-26T01:58:36.241Z,99397.52
2022-08-26T02:01:03.859Z,99400.72
2022-08-26T02:03:32.530Z,99397.42
2022-08-26T02:06:09.237Z,99394.20
2022-08-26T02:08:49.945Z,99393.79
2022-08-26T02:11:18.554Z,99392.25
2022-08-26T02:13:51.845Z,99393.19
2022-08-26T02:16:25.771Z,99392.86
2022-08-26T02:18:55.220Z,99396.20
2022-08-26T02:21:22.509Z,99398.45
2022-08-26T02:23:53.320Z,99399.50
2022-08-26T02:26:26.892Z,99399.51
2022-08-26T02:29:05.117Z,99394.65
2022-08-26T02:31:35.108Z,99396.61
2022-08-26T02:34:10.838Z,99398.71
2022-08-26T02:36:39.094Z,99396.08
2022-08-26T02:39:08.221Z,99394.48
2022-08-26T02:41:35.912Z,99389.30
2022-08-26T02:44:12.738Z,99392.09
2022-08-26T02:46:40.681Z,99391.59
2022-08-26T02:49:09.499Z,99394.09
2022-08-26T02:51:38.243Z,99391.21
2022-08-26T02:54:07.748Z,99392.75
2022-08-26T02:56:35.308Z,99391.86
2022-08-26T02:59:03.270Z,99393.17
2022-08-26T03:01:34.276Z,99389.33
2022-08-26T03:04:04.943Z,99389.84
2022-08-26T03:06:33.217Z,99387.92
2022-08-26T03:09:00.373Z,99387.58
2022-08-26T03:11:30.935Z,99398.44
2022-08-26T03:14:03.662Z,99404.91
2022-08-26T03:16:34.992Z,99404.00
2022-08-26T03:19:05.444Z,99405.02
2022-08-26T03:21:34.240Z,99406.76
2022-08-26T03:24:03.878Z,99403.94
2022-08-26T03:26:31.542Z,99402.13
2022-08-26T03:29:17.204Z,99400.79
2022-08-26T03:31:45.109Z,99401.88
2022-08-26T03:34:15.800Z,99396.85
2022-08-26T03:36:43.360Z,99400.81
2022-08-26T03:39:13.372Z,99396.89
2022-08-26T03:41:43.902Z,99398.39
2022-08-26T03:44:11.560Z,99396.64
2022-08-26T03:46:39.645Z,99395.97
2022-08-26T03:49:07.528Z,99397.12
2022-08-26T03:51:38.631Z,99396.47
2022-08-26T03:54:08.170Z,99393.00
2022-08-26T03:56:36.301Z,99390.63
2022-08-26T03:59:05.322Z,99391.67
2022-08-26T04:01:35.515Z,99391.05
2022-08-26T04:04:04.012Z,99393.23
2022-08-26T04:06:38.951Z,99391.42
2022-08-26T04:09:14.089Z,99398.17
2022-08-26T04:11:44.844Z,99398.17
2022-08-26T04:14:20.119Z,99398.39
2022-08-26T04:16:48.443Z,99395.15
2022-08-26T04:19:17.213Z,99391.95
2022-08-26T04:21:46.934Z,99389.77
2022-08-26T04:24:16.513Z,99395.32
2022-08-26T04:26:45.157Z,99392.38
2022-08-26T04:29:20.352Z,99392.18
2022-08-26T04:31:47.791Z,99392.35
2022-08-26T04:34:16.410Z,99393.89
2022-08-26T04:36:44.398Z,99394.89
2022-08-26T04:39:16.258Z,99386.93
2022-08-26T04:41:44.503Z,99387.52
2022-08-26T04:44:12.682Z,99385.98
2022-08-26T04:46:43.877Z,99389.45
2022-08-26T04:49:12.552Z,99387.67
2022-08-26T04:51:40.326Z,99386.80
2022-08-26T04:54:08.550Z,99387.77
2022-08-26T04:56:39.069Z,99387.27
2022-08-26T04:59:16.784Z,99386.48
2022-08-26T05:01:52.011Z,99383.41
2022-08-26T05:04:20.833Z,99391.73
2022-08-26T05:06:49.119Z,99391.35
2022-08-26T05:09:18.071Z,99391.11
2022-08-26T05:11:45.968Z,99389.30
2022-08-26T05:14:22.677Z,99395.78
2022-08-26T05:16:50.678Z,99395.77
2022-08-26T05:19:19.186Z,99393.54
2022-08-26T05:21:48.113Z,99401.61
2022-08-26T05:24:16.901Z,99401.97
2022-08-26T05:26:44.904Z,99404.94
2022-08-26T05:29:13.841Z,99404.98
2022-08-26T05:31:41.158Z,99404.94
2022-08-26T05:34:08.658Z,99406.68
2022-08-26T05:36:37.095Z,99405.74
2022-08-26T05:39:05.850Z,99404.48
2022-08-26T05:41:38.403Z,99401.88
2022-08-26T05:44:12.393Z,99400.63
2022-08-26T05:46:40.829Z,99403.94
2022-08-26T05:49:12.577Z,99398.35
2022-08-26T05:51:44.696Z,99402.87
2022-08-26T05:54:14.288Z,99402.70
2022-08-26T05:56:52.564Z,99400.83
2022-08-26T05:59:24.035Z,99400.08
2022-08-26T06:01:54.073Z,99406.95
2022-08-26T06:04:23.200Z,99404.48
2022-08-26T06:06:53.899Z,99400.95
2022-08-26T06:09:21.262Z,99401.38
2022-08-26T06:11:48.625Z,99403.65
2022-08-26T06:14:17.488Z,99407.81
2022-08-26T06:16:45.686Z,99407.42
2022-08-26T06:19:15.109Z,99407.05
2022-08-26T06:21:45.997Z,99401.66
2022-08-26T06:24:33.006Z,99405.11
2022-08-26T06:27:04.786Z,99406.32
2022-08-26T06:29:34.622Z,99402.73
2022-08-26T06:32:04.359Z,99402.47
2022-08-26T06:34:32.214Z,99406.92
2022-08-26T06:37:05.553Z,99411.13
2022-08-26T06:39:34.180Z,99413.15
2022-08-26T06:42:02.736Z,99409.73
2022-08-26T06:44:34.066Z,99410.88
2022-08-26T06:47:01.312Z,99414.38
2022-08-26T06:49:28.447Z,99418.91
2022-08-26T06:51:59.141Z,99415.16
2022-08-26T06:54:31.089Z,99404.42
2022-08-26T06:56:58.914Z,99406.30
2022-08-26T06:59:26.369Z,99399.60
2022-08-26T07:01:54.396Z,99397.85
2022-08-26T07:04:22.469Z,99394.64
2022-08-26T07:06:52.315Z,99391.95
2022-08-26T07:09:27.360Z,99391.31
2022-08-26T07:11:56.217Z,99386.43
2022-08-26T07:14:24.768Z,99384.02
2022-08-26T07:16:51.897Z,99384.07
2022-08-26T07:19:31.092Z,99372.72
2022-08-26T07:22:03.341Z,99375.66
2022-08-26T07:24:34.982Z,99377.48
2022-08-26T07:27:16.887Z,99370.11
2022-08-26T07:29:44.852Z,99365.32
2022-08-26T07:32:15.260Z,99363.41
2022-08-26T07:34:43.001Z,99361.89
2022-08-26T07:37:11.638Z,99359.02
2022-08-26T07:39:40.473Z,99357.48
2022-08-26T07:42:10.414Z,99357.69
2022-08-26T07:44:39.346Z,99358.79
2022-08-26T07:47:19.385Z,99360.77
2022-08-26T07:49:57.207Z,99355.51
2022-08-26T07:52:29.970Z,99359.29
2022-08-26T07:55:00.731Z,99362.82
2022-08-26T07:57:29.879Z,99354.20
2022-08-26T07:59:58.661Z,99355.41
2022-08-26T08:02:28.104Z,99355.55
2022-08-26T08:04:57.369Z,99347.59
2022-08-26T08:07:25.886Z,99350.38
2022-08-26T08:10:20.829Z,99343.38
2022-08-26T08:12:49.285Z,99338.38
2022-08-26T08:15:20.365Z,99332.88
2022-08-26T08:17:48.045Z,99328.58
2022-08-26T08:20:19.765Z,99327.71
2022-08-26T08:22:47.746Z,99327.13
2022-08-26T08:25:15.757Z,99328.17
2022-08-26T08:27:48.209Z,99334.06
2022-08-26T08:30:20.875Z,99331.98
2022-08-26T08:32:51.924Z,99333.61
2022-08-26T08:35:23.532Z,99330.82
2022-08-26T08:37:53.929Z,99330.81
2022-08-26T08:40:24.603Z,99333.04
2022-08-26T08:43:07.403Z,99334.05
2022-08-26T08:45:48.560Z,99328.77
2022-08-26T08:48:32.964Z,99323.88
2022-08-26T08:51:39.414Z,99319.42
2022-08-26T08:54:08.692Z,99320.55
2022-08-26T08:57:20.260Z,99318.02
2022-08-26T09:00:08.789Z,99323.39
2022-08-26T09:03:01.205Z,99314.77
2022-08-26T09:05:39.712Z,99321.25
2022-08-26T09:08:17.404Z,99318.92
2022-08-26T09:10:54.026Z,99313.23
2022-08-26T09:13:26.171Z,99313.17
2022-08-26T09:15:59.970Z,99312.58
2022-08-26T09:18:51.242Z,99312.04
2022-08-26T09:21:23.638Z,99311.78
2022-08-26T09:23:55.437Z,99309.38
2022-08-26T09:26:40.560Z,99305.89
2022-08-26T09:29:18.441Z,99302.02
2022-08-26T09:31:45.794Z,99299.85
2022-08-26T09:34:17.790Z,99298.36
2022-08-26T09:36:50.877Z,99287.99
2022-08-26T09:39:23.669Z,99286.55
2022-08-26T09:42:23.153Z,99285.56
2022-08-26T09:45:07.923Z,99281.31
2022-08-26T09:47:47.056Z,99284.46
2022-08-26T09:50:54.474Z,99280.59
2022-08-26T09:53:28.698Z,99276.70
2022-08-26T09:56:16.095Z,99273.45
2022-08-26T09:58:47.043Z,99269.54
2022-08-26T10:01:33.174Z,99268.70
2022-08-26T10:04:32.902Z,99263.52
2022-08-26T10:07:05.197Z,99269.13
2022-08-26T10:09:38.596Z,99268.94
2022-08-26T10:12:20.738Z,99261.88
2022-08-26T10:14:55.950Z,99264.94
2022-08-26T10:17:47.381Z,99257.55
2022-08-26T10:20:23.169Z,99255.71
2022-08-26T10:23:09.002Z,99245.73
2022-08-26T10:25:53.265Z,99245.29
2022-08-26T10:28:54.636Z,99242.17
2022-08-26T10:31:40.172Z,99241.30
2022-08-26T10:34:10.083Z,99244.16
2022-08-26T10:37:14.917Z,99237.13
2022-08-26T10:39:57.014Z,99240.68
2022-08-26T10:42:47.688Z,99237.39
2022-08-26T10:45:19.657Z,99236.88
2022-08-26T10:48:04.012Z,99232.14
2022-08-26T10:50:44.885Z,99232.41
2022-08-26T10:53:25.185Z,99232.01
2022-08-26T10:56:15.727Z,99227.34
2022-08-26T10:59:32.913Z,99223.67
2022-08-26T11:02:26.238Z,99225.58
2022-08-26T11:05:03.079Z,99222.93
2022-08-26T11:07:45.724Z,99219.80
2022-08-26T11:10:22.697Z,99216.39
2022-08-26T11:13:04.873Z,99216.84
2022-08-26T11:15:31.964Z,99212.61
2022-08-26T11:18:03.865Z,99211.09
2022-08-26T11:20:42.368Z,99216.37
2022-08-26T11:23:13.021Z,99213.46
2022-08-26T11:26:01.028Z,99209.16
2022-08-26T11:28:44.025Z,99204.69
2022-08-26T11:31:38.834Z,99205.16
2022-08-26T11:34:13.225Z,99207.80
2022-08-26T11:37:21.583Z,99208.61
2022-08-26T11:40:05.101Z,99206.05
2022-08-26T11:42:57.153Z,99207.69
2022-08-26T11:45:44.934Z,99201.80
2022-08-26T11:48:37.465Z,99203.59
2022-08-26T11:53:12.017Z,99201.38
2022-08-26T11:55:44.413Z,99201.64
2022-08-26T11:58:12.706Z,99199.35
2022-08-26T12:00:46.339Z,99193.19
2022-08-26T12:03:25.525Z,99195.15
2022-08-26T12:05:53.866Z,99193.94
2022-08-26T12:08:27.980Z,99189.25
2022-08-26T12:11:09.038Z,99191.36
2022-08-26T12:13:38.574Z,99185.86
2022-08-26T12:16:06.962Z,99182.16
2022-08-26T12:18:38.627Z,99180.48
2022-08-26T12:21:24.316Z,99180.97
2022-08-26T12:23:55.772Z,99183.64
2022-08-26T12:26:36.516Z,99183.67
2022-08-26T12:29:20.208Z,99177.89
2022-08-26T12:32:17.219Z,99176.28
2022-08-26T12:34:48.582Z,99174.05
2022-08-26T12:37:16.129Z,99172.75
2022-08-26T12:39:47.317Z,99168.25
2022-08-26T12:42:17.314Z,99171.34
2022-08-26T12:44:59.567Z,99169.79
2022-08-26T12:47:43.936Z,99165.97
2022-08-26T12:50:27.044Z,99164.39
2022-08-26T12:53:10.145Z,99163.93
2022-08-26T12:55:55.626Z,99167.78
2022-08-26T12:58:33.062Z,99159.27
2022-08-26T13:01:06.304Z,99159.98
2022-08-26T13:03:33.419Z,99159.27
2022-08-26T13:06:23.176Z,99152.88
2022-08-26T13:09:00.152Z,99148.00
2022-08-26T13:11:33.005Z,99146.56
2022-08-26T13:14:09.836Z,99144.88
2022-08-26T13:16:40.995Z,99140.17
2022-08-26T13:19:12.901Z,99140.71
2022-08-26T13:21:53.325Z,99136.31
2022-08-26T13:24:25.610Z,99143.89
2022-08-26T13:26:53.077Z,99140.02
2022-08-26T13:29:20.672Z,99146.71
2022-08-26T13:31:48.296Z,99143.35
2022-08-26T13:34:19.691Z,99153.42
2022-08-26T13:36:53.638Z,99155.59
2022-08-26T13:39:22.414Z,99153.45
2022-08-26T13:41:49.954Z,99152.56
2022-08-26T13:44:18.140Z,99157.20
2022-08-26T13:49:17.986Z,99157.75
2022-08-26T13:51:45.257Z,99161.41
2022-08-26T13:54:12.660Z,99158.05
2022-08-26T13:56:40.337Z,99156.05
2022-08-26T13:59:07.440Z,99152.36
2022-08-26T14:01:35.880Z,99152.13
2022-08-26T14:04:03.850Z,99155.40
2022-08-26T14:06:31.598Z,99156.20
2022-08-26T14:08:58.947Z,99154.30
2022-08-26T14:11:26.811Z,99157.59
2022-08-26T14:13:54.060Z,99158.30
2022-08-26T14:16:32.754Z,99155.81
2022-08-26T14:19:01.780Z,99157.02
2022-08-26T14:21:31.403Z,99152.00
2022-08-26T14:24:00.962Z,99151.38
2022-08-26T14:26:29.909Z,99154.85
2022-08-26T14:28:59.329Z,99150.77
2022-08-26T14:31:29.349Z,99151.52
2022-08-26T14:34:02.089Z,99148.77
2022-08-26T14:36:31.970Z,99149.57
2022-08-26T14:39:11.786Z,99150.61
2022-08-26T14:41:46.048Z,99147.14
2022-08-26T14:44:27.461Z,99150.31
2022-08-26T14:46:55.339Z,99147.46
2022-08-26T14:49:24.702Z,99149.88
2022-08-26T14:51:51.953Z,99148.27
2022-08-26T14:54:20.742Z,99147.45
2022-08-26T14:56:53.637Z,99148.98
2022-08-26T14:59:28.460Z,99146.98
2022-08-26T15:01:57.040Z,99148.29
2022-08-26T15:04:24.796Z,99151.36
2022-08-26T15:06:54.385Z,99152.17
2022-08-26T15:09:23.200Z,99152.36
2022-08-26T15:11:52.297Z,99154.33
2022-08-26T15:14:20.464Z,99155.19
2022-08-26T15:16:51.501Z,99155.83
2022-08-26T15:19:20.010Z,99154.34
2022-08-26T15:21:47.610Z,99154.73
2022-08-26T15:24:20.843Z,99152.36
2022-08-26T15:26:49.113Z,99153.41
2022-08-26T15:29:16.877Z,99150.46
2022-08-26T15:31:44.113Z,99149.54
2022-08-26T15:34:16.401Z,99150.16
2022-08-26T15:36:46.824Z,99149.98
2022-08-26T15:39:16.848Z,99150.92
2022-08-26T15:41:44.812Z,99153.61
2022-08-26T15:44:13.725Z,99154.93
2022-08-26T15:46:41.575Z,99156.99
2022-08-26T15:49:09.065Z,99155.23
2022-08-26T15:51:47.444Z,99156.81
2022-08-26T15:54:16.305Z,99161.17
2022-08-26T15:56:44.973Z,99158.92
2022-08-26T15:59:12.373Z,99160.75
2022-08-26T16:01:40.244Z,99163.52
2022-08-26T16:04:07.494Z,99164.39
2022-08-26T16:06:38.430Z,99164.70
2022-08-26T16:09:06.528Z,99164.98
2022-08-26T16:11:37.543Z,99166.30
2022-08-26T16:14:05.308Z,99167.80
2022-08-26T16:16:32.981Z,99166.86
2022-08-26T16:19:05.626Z,99166.86
2022-08-26T16:21:35.234Z,99167.19
2022-08-26T16:24:03.446Z,99166.40
2022-08-26T16:26:34.770Z,99171.59
2022-08-26T16:29:06.054Z,99169.80
2022-08-26T16:31:35.272Z,99174.08
2022-08-26T16:34:02.572Z,99174.77
2022-08-26T16:36:29.939Z,99174.51
2022-08-26T16:38:57.177Z,99171.46
2022-08-26T16:41:28.316Z,99170.89
2022-08-26T16:43:55.972Z,99172.79
2022-08-26T16:46:25.220Z,99171.81
2022-08-26T16:48:54.787Z,99167.67
2022-08-26T16:51:26.469Z,99167.24
2022-08-26T16:53:55.819Z,99167.69
2022-08-26T16:56:34.081Z,99165.81
2022-08-26T16:59:05.740Z,99173.50
2022-08-26T17:01:33.155Z,99170.27
2022-08-26T17:04:00.547Z,99173.89
2022-08-26T17:06:27.979Z,99175.93
2022-08-26T17:08:55.114Z,99171.79
2022-08-26T17:11:22.577Z,99174.48
2022-08-26T17:13:50.039Z,99172.02
2022-08-26T17:16:17.323Z,99175.34
2022-08-26T17:18:44.428Z,99173.70
2022-08-26T17:21:13.239Z,99179.20
2022-08-26T17:23:42.330Z,99180.61
2022-08-26T17:26:11.854Z,99184.41
2022-08-26T17:28:40.130Z,99186.92
2022-08-26T17:31:11.927Z,99191.09
2022-08-26T17:33:40.375Z,99188.55
2022-08-26T17:36:08.953Z,99187.54
2022-08-26T17:38:37.710Z,99197.38
2022-08-26T17:41:13.666Z,99197.77
2022-08-26T17:43:41.252Z,99197.26
2022-08-26T17:46:11.108Z,99195.66
2022-08-26T17:48:40.242Z,99201.61
2022-08-26T17:51:16.333Z,99201.32
2022-08-26T17:53:43.548Z,99204.69
2022-08-26T17:56:13.303Z,99203.33
2022-08-26T17:58:50.995Z,99203.27
2022-08-26T18:01:25.617Z,99202.53
2022-08-26T18:03:58.182Z,99201.27
2022-08-26T18:06:30.011Z,99207.30
2022-08-26T18:08:57.777Z,99207.83
2022-08-26T18:11:25.021Z,99204.29
2022-08-26T18:13:52.920Z,99207.18
2022-08-26T18:16:20.995Z,99208.38
2022-08-26T18:18:48.609Z,99207.69
2022-08-26T18:21:18.901Z,99207.62
2022-08-26T18:23:47.464Z,99207.77
2022-08-26T18:26:24.890Z,99205.30
2022-08-26T18:28:53.304Z,99200.56
2022-08-26T18:31:21.070Z,99200.15
2022-08-26T18:33:48.274Z,99198.59
2022-08-26T18:36:36.974Z,99199.72
2022-08-26T18:39:07.087Z,99199.24
2022-08-26T18:41:44.346Z,99200.30
2022-08-26T18:44:14.363Z,99201.84
2022-08-26T18:46:42.856Z,99197.70
2022-08-26T18:49:12.737Z,99196.98
2022-08-26T18:51:41.364Z,99198.53
2022-08-26T18:54:08.658Z,99193.27
2022-08-26T18:56:37.854Z,99193.02
2022-08-26T18:59:07.435Z,99194.32
2022-08-26T19:01:36.830Z,99193.38
2022-08-26T19:04:06.676Z,99194.83
2022-08-26T19:06:35.694Z,99191.59
2022-08-26T19:09:07.086Z,99192.10
2022-08-26T19:11:41.715Z,99197.39
2022-08-26T19:14:13.813Z,99197.71
2022-08-26T19:16:48.150Z,99197.55
2022-08-26T19:19:16.059Z,99201.38
2022-08-26T19:21:43.816Z,99201.48
2022-08-26T19:24:17.021Z,99198.05
2022-08-26T19:26:51.422Z,99201.71
2022-08-26T19:29:33.233Z,99204.83
2022-08-26T19:32:01.795Z,99207.27
2022-08-26T19:34:29.466Z,99206.20
2022-08-26T19:36:58.162Z,99201.97
2022-08-26T19:39:26.217Z,99206.88
2022-08-26T19:41:53.480Z,99201.65
2022-08-26T19:44:41.156Z,99199.09
2022-08-26T19:47:11.646Z,99196.66
2022-08-26T19:49:38.993Z,99197.22
2022-08-26T19:52:07.984Z,99199.44
2022-08-26T19:54:35.768Z,99196.27
2022-08-26T19:57:03.571Z,99193.40
2022-08-26T19:59:32.717Z,99200.80
2022-08-26T20:02:01.355Z,99196.96
2022-08-26T20:04:30.998Z,99197.89
2022-08-26T20:07:00.768Z,99199.91
2022-08-26T20:09:30.257Z,99201.97
2022-08-26T20:11:58.273Z,99201.79
2022-08-26T20:14:29.637Z,99207.11
2022-08-26T20:16:57.180Z,99206.23
2022-08-26T20:19:42.809Z,99204.62
2022-08-26T20:22:11.821Z,99205.10
2022-08-26T20:24:39.356Z,99203.98
2022-08-26T20:27:07.899Z,99206.80
2022-08-26T20:29:37.335Z,99206.45
2022-08-26T20:32:07.351Z,99205.23
2022-08-26T20:34:36.652Z,99202.21
2022-08-26T20:37:04.196Z,99201.02
2022-08-26T20:39:31.345Z,99199.92
2022-08-26T20:41:58.901Z,99200.45
2022-08-26T20:44:26.362Z,99198.98
2022-08-26T20:46:54.832Z,99198.05
2022-08-26T20:49:22.300Z,99200.36
2022-08-26T20:51:52.529Z,99202.30
2022-08-26T20:54:28.062Z,99201.21
2022-08-26T20:56:57.763Z,99208.31
2022-08-26T20:59:26.230Z,99206.15
2022-08-26T21:01:53.815Z,99207.45
2022-08-26T21:04:25.014Z,99213.55
2022-08-26T21:06:54.053Z,99214.87
2022-08-26T21:09:23.721Z,99217.64
2022-08-26T21:11:52.224Z,99218.89
2022-08-26T21:14:20.162Z,99218.94
2022-08-26T21:16:47.317Z,99222.27
2022-08-26T21:19:17.892Z,99222.64
2022-08-26T21:21:47.799Z,99223.77
2022-08-26T21:24:15.972Z,99226.90
2022-08-26T21:26:43.337Z,99226.84
2022-08-26T21:29:10.687Z,99229.42
2022-08-26T21:31:42.290Z,99227.27
2022-08-26T21:34:14.094Z,99223.15
2022-08-26T21:36:41.352Z,99224.60
2022-08-26T21:39:11.706Z,99222.92
2022-08-26T21:41:42.719Z,99224.36
2022-08-26T21:44:11.600Z,99223.64
2022-08-26T21:46:38.639Z,99222.83
2022-08-26T21:49:09.598Z,99226.17
2022-08-26T21:51:41.277Z,99222.98
2022-08-26T21:54:11.292Z,99221.73
2022-08-26T21:56:46.168Z,99218.45
2022-08-26T21:59:18.488Z,99220.45
2022-08-26T22:01:47.128Z,99213.60
2022-08-26T22:04:15.738Z,99215.96
2022-08-26T22:06:48.273Z,99213.54
2022-08-26T22:09:20.466Z,99214.05
2022-08-26T22:11:48.622Z,99214.88
2022-08-26T22:14:17.633Z,99216.41
2022-08-26T22:16:50.559Z,99215.77
2022-08-26T22:19:20.624Z,99213.83
2022-08-26T22:21:53.181Z,99213.80
2022-08-26T22:24:24.464Z,99216.02
2022-08-26T22:26:52.218Z,99215.34
2022-08-26T22:29:20.101Z,99216.77
2022-08-26T22:31:47.490Z,99212.34
2022-08-26T22:34:16.945Z,99213.33
2022-08-26T22:36:47.822Z,99212.73
2022-08-26T22:39:19.854Z,99211.58
2022-08-26T22:41:48.031Z,99214.25
2022-08-26T22:44:17.005Z,99209.48
2022-08-26T22:46:44.782Z,99211.14
2022-08-26T22:49:16.767Z,99208.67
2022-08-26T22:51:45.632Z,99205.09
2022-08-26T22:54:13.836Z,99208.88
2022-08-26T22:56:41.600Z,99204.59
2022-08-26T22:59:09.584Z,99200.86
2022-08-26T23:01:40.290Z,99202.55
2022-08-26T23:04:08.952Z,99201.69
2022-08-26T23:06:39.527Z,99202.45
2022-08-26T23:09:07.930Z,99201.66
2022-08-26T23:11:35.538Z,99202.13
2022-08-26T23:14:06.325Z,99208.11
2022-08-26T23:16:39.226Z,99203.66
2022-08-26T23:19:09.918Z,99207.16
2022-08-26T23:21:38.369Z,99212.11
2022-08-26T23:24:07.398Z,99207.48
2022-08-26T23:26:35.331Z,99211.23
2022-08-26T23:29:04.573Z,99210.48
2022-08-26T23:31:32.271Z,99212.39
2022-08-26T23:34:18.384Z,99211.73
2022-08-26T23:36:45.765Z,99208.94
2022-08-26T23:39:14.924Z,99211.88
2022-08-26T23:41:42.487Z,99209.48
2022-08-26T23:44:10.548Z,99212.26
2022-08-26T23:46:38.197Z,99203.89
2022-08-26T23:49:05.448Z,99209.49
2022-08-26T23:51:51.253Z,99204.10
2022-08-26T23:54:19.264Z,99200.77
2022-08-26T23:56:46.997Z,99203.28
2022-08-26T23:59:15.273Z,99201.83
